Time;durP1;ratioP1;P1;durP2;ratioP2;P2;SDS_P1;SDS_P2;PMS_P1;PMS_P2;Temp;Humidity;BMP_temperature;BMP_pressure;BME280_temperature;BME280_humidity;BME280_pressure;Samples;Min_cycle;Max_cycle;Signal;HPM_P1;HPM_P2
2023/03/22 00:01:18;;;;;;;13.25;5.40;;;;;;;7.84;100.00;100999.41;6276692;22;20302;-75
2023/03/22 00:03:44;;;;;;;11.73;5.32;;;;;;;7.74;100.00;100979.28;6276386;22;20018;-75
2023/03/22 00:06:10;;;;;;;12.45;5.05;;;;;;;7.75;100.00;100986.09;6276386;22;20026;-76
2023/03/22 00:08:35;;;;;;;11.70;5.32;;;;;;;7.75;100.00;100982.69;6276384;22;20420;-75
2023/03/22 00:11:02;;;;;;;13.43;5.25;;;;;;;7.67;100.00;100985.66;6249301;22;20008;-76
2023/03/22 00:13:27;;;;;;;13.13;5.30;;;;;;;7.69;100.00;100986.41;6276649;22;20028;-76
2023/03/22 00:15:54;;;;;;;8.98;5.10;;;;;;;7.65;100.00;100981.47;6276787;22;20046;-75
2023/03/22 00:18:20;;;;;;;13.27;5.45;;;;;;;7.63;100.00;100968.69;6276314;22;20436;-76
2023/03/22 00:20:50;;;;;;;14.32;4.90;;;;;;;7.58;100.00;100970.66;6276426;22;20000;-76
2023/03/22 00:23:16;;;;;;;10.27;4.77;;;;;;;7.41;100.00;100950.91;6276616;22;20014;-75
2023/03/22 00:25:43;;;;;;;10.40;5.45;;;;;;;7.31;100.00;100933.44;6276383;22;20425;-76
2023/03/22 00:28:10;;;;;;;12.55;5.20;;;;;;;7.47;100.00;100960.91;6276110;22;20066;-75
2023/03/22 00:30:36;;;;;;;10.48;5.15;;;;;;;7.42;100.00;100954.31;6276935;22;20508;-75
2023/03/22 00:33:01;;;;;;;14.60;4.57;;;;;;;7.38;100.00;100958.78;6278550;22;20078;-76
2023/03/22 00:35:27;;;;;;;12.05;5.53;;;;;;;7.28;100.00;100943.88;6278655;22;20034;-76
2023/03/22 00:37:52;;;;;;;11.13;4.55;;;;;;;7.33;100.00;100947.03;6278590;22;20105;-76
2023/03/22 00:40:18;;;;;;;10.90;4.38;;;;;;;7.31;100.00;100954.00;6251349;22;20011;-75
2023/03/22 00:42:43;;;;;;;11.57;4.20;;;;;;;7.29;100.00;100942.97;6278411;22;20306;-75
2023/03/22 00:45:11;;;;;;;11.40;4.82;;;;;;;7.26;100.00;100937.97;6278143;22;20315;-75
2023/03/22 00:47:37;;;;;;;11.57;4.43;;;;;;;7.23;100.00;100932.97;6278018;22;20022;-76
2023/03/22 00:50:03;;;;;;;10.95;4.70;;;;;;;7.21;100.00;100930.47;6278349;22;20004;-75
2023/03/22 00:52:29;;;;;;;11.82;4.20;;;;;;;7.10;100.00;100902.75;6278150;22;19996;-75
2023/03/22 00:54:55;;;;;;;9.40;4.55;;;;;;;7.07;100.00;100912.31;6278288;22;20079;-76
2023/03/22 00:57:20;;;;;;;13.85;5.22;;;;;;;7.05;100.00;100907.25;6278476;22;20046;-75
2023/03/22 00:59:46;;;;;;;13.85;5.28;;;;;;;7.19;100.00;100920.28;6250824;22;20068;-75
2023/03/22 01:02:14;;;;;;;15.50;4.68;;;;;;;7.23;100.00;100917.56;6278083;22;20007;-76
2023/03/22 01:04:45;;;;;;;9.43;4.07;;;;;;;7.20;100.00;100905.72;6278118;22;20409;-76
2023/03/22 01:07:20;;;;;;;9.47;4.43;;;;;;;7.25;100.00;100908.88;6278363;22;20083;-76
2023/03/22 01:09:47;;;;;;;10.82;4.88;;;;;;;7.29;100.00;100901.88;6278000;22;20004;-76
2023/03/22 01:12:14;;;;;;;10.68;4.70;;;;;;;7.34;100.00;100905.88;6278227;22;20012;-76
2023/03/22 01:14:39;;;;;;;10.90;4.65;;;;;;;7.37;100.00;100904.88;6277787;22;20011;-76
2023/03/22 01:17:08;;;;;;;9.18;4.18;;;;;;;7.31;100.00;100890.59;6278241;22;20004;-76
2023/03/22 01:19:35;;;;;;;15.93;5.05;;;;;;;7.30;100.00;100882.97;6277911;22;20421;-76
2023/03/22 01:22:01;;;;;;;11.70;4.93;;;;;;;7.28;100.00;100869.38;6277809;22;20090;-74
2023/03/22 01:24:27;;;;;;;12.52;4.80;;;;;;;7.38;100.00;100876.56;6277483;22;20444;-76
2023/03/22 01:26:52;;;;;;;13.25;5.20;;;;;;;7.31;100.00;100854.66;6249666;22;20008;-74
2023/03/22 01:29:17;;;;;;;16.65;5.80;;;;;;;7.45;100.00;100865.06;6277722;22;20413;-76
2023/03/22 01:31:43;;;;;;;14.60;6.93;;;;;;;7.42;100.00;100831.81;6278168;22;20008;-74
2023/03/22 01:34:08;;;;;;;13.85;7.50;;;;;;;7.65;100.00;100852.97;6277747;22;20003;-75
2023/03/22 01:36:34;;;;;;;17.13;7.13;;;;;;;7.64;100.00;100825.59;6278064;22;20004;-76
2023/03/22 01:39:00;;;;;;;19.38;8.18;;;;;;;7.84;100.00;100848.56;6277876;22;20315;-76
2023/03/22 01:41:25;;;;;;;13.63;8.77;;;;;;;7.92;100.00;100843.03;6277691;22;20011;-76
2023/03/22 01:44:12;;;;;;;13.35;8.25;;;;;;;8.01;100.00;100839.97;6277052;22;20417;-74
2023/03/22 01:46:39;;;;;;;14.18;8.30;;;;;;;8.03;100.00;100820.97;6277787;22;20004;-74
2023/03/22 01:49:07;;;;;;;16.60;8.45;;;;;;;8.05;100.00;100810.59;6277663;22;20011;-75
2023/03/22 01:51:32;;;;;;;15.23;9.30;;;;;;;8.20;100.00;100820.09;6277777;22;20040;-76
2023/03/22 01:54:01;;;;;;;16.85;9.35;;;;;;;8.25;100.00;100804.41;6277472;22;20000;-76
2023/03/22 01:56:31;;;;;;;16.50;9.95;;;;;;;8.27;100.00;100798.28;6277217;22;20053;-75
2023/03/22 01:58:57;;;;;;;15.20;9.77;;;;;;;8.33;100.00;100795.38;6277509;22;20004;-76
2023/03/22 02:01:23;;;;;;;19.50;10.88;;;;;;;8.39;100.00;100790.84;6277634;22;20054;-76
2023/03/22 02:03:54;;;;;;;15.60;9.82;;;;;;;8.41;100.00;100796.72;6277792;22;20000;-76
2023/03/22 02:06:20;;;;;;;19.13;10.88;;;;;;;8.43;100.00;100787.19;6277921;22;20093;-76
2023/03/22 02:08:46;;;;;;;16.80;9.68;;;;;;;8.21;100.00;100746.31;6277665;22;20031;-76
2023/03/22 02:11:34;;;;;;;15.27;10.75;;;;;;;8.46;100.00;100787.03;6277093;22;20409;-75
2023/03/22 02:14:11;;;;;;;17.05;10.65;;;;;;;8.42;100.00;100768.34;6277791;22;20004;-76
2023/03/22 02:16:58;;;;;;;18.08;10.90;;;;;;;8.53;100.00;100776.28;6277389;22;20008;-75
2023/03/22 02:19:46;;;;;;;16.60;10.98;;;;;;;8.55;100.00;100777.06;6277273;22;20015;-75
2023/03/22 02:22:43;;;;;;;17.08;11.82;;;;;;;8.59;100.00;100773.38;6277443;22;20004;-75
2023/03/22 02:25:45;;;;;;;18.00;11.35;;;;;;;8.63;100.00;100774.03;6277084;22;19999;-75
2023/03/22 02:28:21;;;;;;;19.83;11.32;;;;;;;8.57;100.00;100758.94;6250040;22;20012;-76
2023/03/22 02:30:57;;;;;;;16.08;11.93;;;;;;;8.68;100.00;100763.50;6277567;22;20003;-75
2023/03/22 02:33:52;;;;;;;19.40;11.32;;;;;;;8.68;100.00;100769.47;6250082;22;20026;-74
2023/03/22 02:36:29;;;;;;;24.10;12.57;;;;;;;8.68;100.00;100772.06;6277243;22;20437;-75
2023/03/22 02:39:13;;;;;;;16.65;11.35;;;;;;;8.69;100.00;100765.16;6277086;22;20010;-74
2023/03/22 02:42:03;;;;;;;17.50;11.43;;;;;;;8.69;100.00;100768.56;6277024;22;20000;-76
2023/03/22 02:44:38;;;;;;;15.50;10.80;;;;;;;8.72;100.00;100765.81;6276566;22;20011;-75
2023/03/22 02:47:12;;;;;;;16.58;11.25;;;;;;;8.62;100.00;100739.75;6277335;22;20015;-75
2023/03/22 02:49:49;;;;;;;15.98;10.85;;;;;;;8.53;100.00;100726.56;6277081;22;20010;-75
2023/03/22 02:52:17;;;;;;;16.45;11.13;;;;;;;8.69;100.00;100747.13;6277233;22;20003;-76
2023/03/22 02:55:11;;;;;;;18.05;11.80;;;;;;;8.67;100.00;100739.50;6276769;22;20082;-75
2023/03/22 02:57:57;;;;;;;17.85;11.52;;;;;;;8.77;100.00;100750.13;6213313;23;20008;-75
2023/03/22 03:00:24;;;;;;;17.67;11.00;;;;;;;8.77;100.00;100738.06;6213340;23;20009;-75
2023/03/22 03:02:55;;;;;;;15.95;11.20;;;;;;;8.76;100.00;100741.56;6213412;23;20355;-76
2023/03/22 03:05:23;;;;;;;15.07;10.05;;;;;;;8.76;100.00;100741.56;6213198;23;20040;-76
2023/03/22 03:07:59;;;;;;;16.10;9.32;;;;;;;8.76;100.00;100738.97;6213409;23;20311;-74
2023/03/22 03:10:25;;;;;;;13.68;9.60;;;;;;;8.75;100.00;100732.19;6213370;23;20083;-76
2023/03/22 03:12:51;;;;;;;16.13;9.75;;;;;;;8.75;100.00;100727.03;6213341;23;20393;-75
2023/03/22 03:15:20;;;;;;;16.58;9.40;;;;;;;8.50;100.00;100688.97;6213410;23;20059;-75
2023/03/22 03:17:51;;;;;;;13.20;9.15;;;;;;;8.73;100.00;100726.25;6213289;23;20422;-75
2023/03/22 03:20:45;;;;;;;14.32;9.43;;;;;;;8.74;100.00;100732.25;6213181;23;20445;-76
2023/03/22 03:23:17;;;;;;;13.43;9.07;;;;;;;8.73;100.00;100722.88;6212895;23;20035;-75
2023/03/22 03:25:58;;;;;;;15.68;8.88;;;;;;;8.73;100.00;100730.59;6213054;23;20334;-72
2023/03/22 03:28:29;;;;;;;14.75;9.65;;;;;;;8.71;100.00;100727.28;6212895;23;20079;-75
2023/03/22 03:31:19;;;;;;;13.35;8.57;;;;;;;8.49;100.00;100691.63;6213627;23;20013;-75
2023/03/22 03:34:01;;;;;;;16.23;8.20;;;;;;;8.70;100.00;100728.19;6224806;22;20010;-73
2023/03/22 03:36:29;;;;;;;12.80;7.65;;;;;;;8.55;100.00;100699.84;6276555;22;20433;-76
2023/03/22 03:38:55;;;;;;;12.27;7.93;;;;;;;8.61;100.00;100708.94;6276621;22;20007;-75
2023/03/22 03:41:26;;;;;;;14.60;7.72;;;;;;;8.69;100.00;100722.22;6276762;22;20003;-75
2023/03/22 03:43:54;;;;;;;16.02;7.60;;;;;;;8.66;100.00;100724.97;6276495;22;20007;-76
2023/03/22 03:46:20;;;;;;;14.20;6.93;;;;;;;8.49;100.00;100694.22;6276545;22;20019;-75
2023/03/22 03:48:48;;;;;;;13.55;6.82;;;;;;;8.56;100.00;100714.38;6276717;22;20049;-75
2023/03/22 03:51:14;;;;;;;11.25;6.97;;;;;;;8.45;100.00;100708.16;6276854;22;20030;-75
2023/03/22 03:53:40;;;;;;;12.75;6.95;;;;;;;8.25;100.00;100689.47;6276504;22;20078;-75
2023/03/22 03:56:05;;;;;;;11.55;7.03;;;;;;;8.43;100.00;100726.25;6276811;22;20075;-75
2023/03/22 03:58:31;;;;;;;14.00;6.93;;;;;;;8.38;100.00;100725.69;6276231;22;20069;-75
2023/03/22 04:00:56;;;;;;;13.00;6.75;;;;;;;8.40;100.00;100733.31;6276527;22;20000;-73
2023/03/22 04:03:21;;;;;;;14.88;6.60;;;;;;;8.40;100.00;100735.88;6276608;22;20053;-76
2023/03/22 04:05:47;;;;;;;16.75;6.53;;;;;;;8.31;100.00;100725.16;6277190;22;20000;-75
2023/03/22 04:08:12;;;;;;;10.88;5.90;;;;;;;8.32;100.00;100720.84;6278572;22;20003;-73
2023/03/22 04:10:38;;;;;;;11.40;6.43;;;;;;;8.28;100.00;100724.50;6278518;22;20035;-73
2023/03/22 04:13:03;;;;;;;11.68;6.38;;;;;;;8.13;100.00;100699.59;6278697;22;20079;-75
2023/03/22 04:15:28;;;;;;;10.98;5.93;;;;;;;8.19;100.00;100710.41;6278369;22;20371;-75
2023/03/22 04:17:54;;;;;;;11.57;6.13;;;;;;;8.20;100.00;100724.09;6278713;22;20401;-74
2023/03/22 04:20:19;;;;;;;12.05;5.88;;;;;;;8.20;100.00;100726.66;6278793;22;20506;-75
2023/03/22 04:22:47;;;;;;;11.52;5.75;;;;;;;8.23;100.00;100721.34;6278483;22;20004;-74
2023/03/22 04:25:16;;;;;;;9.75;5.53;;;;;;;8.22;100.00;100717.94;6278354;22;20141;-73
2023/03/22 04:27:42;;;;;;;10.82;6.00;;;;;;;8.18;100.00;100703.59;6278197;22;20022;-73
2023/03/22 04:30:18;;;;;;;12.98;5.75;;;;;;;8.10;100.00;100692.91;6278170;22;20004;-75
2023/03/22 04:32:50;;;;;;;10.80;5.22;;;;;;;8.08;100.00;100694.72;6278653;22;20029;-74
2023/03/22 04:35:15;;;;;;;11.68;5.80;;;;;;;8.16;100.00;100704.56;6278671;22;19999;-75
2023/03/22 04:37:41;;;;;;;10.20;5.63;;;;;;;8.09;100.00;100706.69;6278571;22;20007;-75
2023/03/22 04:40:15;;;;;;;11.00;4.85;;;;;;;8.01;100.00;100701.13;6278259;22;20004;-76
2023/03/22 04:42:41;;;;;;;14.10;5.43;;;;;;;7.94;100.00;100692.06;6278137;22;20087;-76
2023/03/22 04:45:11;;;;;;;11.93;5.35;;;;;;;7.90;100.00;100677.72;6277755;22;20012;-75
2023/03/22 04:47:36;;;;;;;11.75;5.38;;;;;;;8.05;100.00;100705.16;6278118;22;20016;-75
2023/03/22 04:50:02;;;;;;;9.65;5.10;;;;;;;8.05;100.00;100698.28;6278257;22;20014;-74
2023/03/22 04:52:28;;;;;;;13.07;5.38;;;;;;;8.08;100.00;100702.44;6278075;22;19999;-75
2023/03/22 04:54:53;;;;;;;8.75;4.93;;;;;;;8.09;100.00;100698.97;6278089;22;20007;-73
2023/03/22 04:57:18;;;;;;;10.90;4.82;;;;;;;8.11;100.00;100702.28;6278153;22;20006;-75
2023/03/22 04:59:43;;;;;;;11.02;4.93;;;;;;;8.14;100.00;100702.09;6277842;22;20006;-75
2023/03/22 05:02:09;;;;;;;12.15;4.47;;;;;;;8.16;100.00;100702.88;6278370;22;20007;-73
2023/03/22 05:04:34;;;;;;;12.48;4.93;;;;;;;8.18;100.00;100698.47;6278021;22;20023;-75
2023/03/22 05:07:00;;;;;;;12.27;4.82;;;;;;;8.19;100.00;100687.25;6278188;22;20030;-73
2023/03/22 05:09:25;;;;;;;11.85;4.80;;;;;;;8.22;100.00;100684.50;6277905;22;20031;-74
2023/03/22 05:11:51;;;;;;;10.57;4.63;;;;;;;8.15;100.00;100674.63;6251138;22;19999;-75
2023/03/22 05:14:16;;;;;;;9.65;4.47;;;;;;;8.25;100.00;100681.75;6277862;22;20007;-75
2023/03/22 05:16:41;;;;;;;10.75;4.47;;;;;;;8.23;100.00;100686.16;6277535;22;20429;-75
2023/03/22 05:19:12;;;;;;;10.32;4.40;;;;;;;8.22;100.00;100681.09;6277951;22;20389;-72
2023/03/22 05:21:39;;;;;;;12.85;5.13;;;;;;;8.17;100.00;100681.38;6250837;22;20458;-75
2023/03/22 05:24:06;;;;;;;13.50;4.43;;;;;;;8.07;100.00;100667.34;6277792;22;19999;-76
2023/03/22 05:26:31;;;;;;;10.10;4.60;;;;;;;8.15;100.00;100680.59;6277598;22;20010;-75
2023/03/22 05:28:57;;;;;;;8.88;4.38;;;;;;;8.13;100.00;100669.56;6277701;22;20382;-75
2023/03/22 05:31:22;;;;;;;14.93;4.63;;;;;;;7.95;100.00;100650.00;6250057;22;20425;-73
2023/03/22 05:33:49;;;;;;;9.40;4.47;;;;;;;8.01;100.00;100671.09;6278042;22;20007;-73
2023/03/22 05:36:15;;;;;;;11.95;4.22;;;;;;;8.10;100.00;100687.75;6277805;22;20007;-73
2023/03/22 05:38:41;;;;;;;11.60;4.63;;;;;;;7.85;100.00;100641.13;6277624;22;20329;-74
2023/03/22 05:41:06;;;;;;;12.30;4.68;;;;;;;8.14;100.00;100684.09;6277890;22;20007;-73
2023/03/22 05:43:32;;;;;;;10.50;4.72;;;;;;;8.13;100.00;100672.16;6277277;22;20015;-76
2023/03/22 05:45:57;;;;;;;14.23;4.95;;;;;;;8.14;100.00;100678.94;6277525;22;20004;-75
2023/03/22 05:48:23;;;;;;;11.30;4.38;;;;;;;8.11;100.00;100679.13;6277552;22;20008;-75
2023/03/22 05:50:48;;;;;;;8.43;4.20;;;;;;;8.12;100.00;100679.94;6277759;22;20053;-74
2023/03/22 05:53:14;;;;;;;10.82;4.35;;;;;;;8.10;100.00;100681.78;6277896;22;20031;-74
2023/03/22 05:55:39;;;;;;;11.00;4.43;;;;;;;8.08;100.00;100681.88;6277342;22;20167;-75
2023/03/22 05:58:05;;;;;;;9.13;3.92;;;;;;;8.11;100.00;100691.16;6277432;22;20008;-72
2023/03/22 06:00:30;;;;;;;8.95;3.50;;;;;;;8.16;100.00;100691.72;6250562;22;20007;-75
2023/03/22 06:03:02;;;;;;;9.18;3.72;;;;;;;8.20;100.00;100698.38;6277513;22;19999;-75
2023/03/22 06:05:30;;;;;;;8.93;3.45;;;;;;;8.25;100.00;100683.50;6277484;22;19999;-75
2023/03/22 06:07:56;;;;;;;8.98;3.42;;;;;;;8.31;100.00;100688.31;6276980;22;20007;-75
2023/03/22 06:10:23;;;;;;;7.40;3.53;;;;;;;8.32;100.00;100677.09;6277789;22;20003;-75
2023/03/22 06:12:48;;;;;;;12.23;4.25;;;;;;;8.34;100.00;100681.28;6277482;22;19996;-76
2023/03/22 06:15:14;;;;;;;9.88;3.45;;;;;;;8.37;100.00;100684.63;6277050;22;20011;-75
2023/03/22 06:17:40;;;;;;;8.95;3.22;;;;;;;8.39;100.00;100672.47;6277206;22;20057;-76
2023/03/22 06:20:10;;;;;;;12.85;3.60;;;;;;;8.48;100.00;100679.69;6277427;22;20026;-75
2023/03/22 06:22:37;;;;;;;10.32;3.67;;;;;;;8.29;100.00;100631.81;6277414;22;20003;-73
2023/03/22 06:25:02;;;;;;;11.10;3.55;;;;;;;8.61;100.00;100678.06;6277165;22;20372;-73
2023/03/22 06:27:28;;;;;;;10.00;3.40;;;;;;;8.59;100.00;100665.28;6277426;22;20004;-75
2023/03/22 06:29:54;;;;;;;10.02;3.55;;;;;;;8.69;100.00;100680.22;6276513;22;20004;-75
2023/03/22 06:32:25;;;;;;;12.63;3.22;;;;;;;8.74;100.00;100681.56;6277255;22;20035;-74
2023/03/22 06:34:53;;;;;;;9.25;3.45;;;;;;;8.79;100.00;100681.34;6277248;22;20010;-75
2023/03/22 06:37:19;;;;;;;9.88;3.45;;;;;;;8.85;100.00;100679.25;6276983;22;20014;-75
2023/03/22 06:39:45;;;;;;;11.13;4.05;;;;;;;8.77;100.00;100654.84;6277141;22;20008;-75
2023/03/22 06:42:10;;;;;;;9.35;3.15;;;;;;;8.96;100.00;100677.78;6276929;22;19999;-76
2023/03/22 06:44:35;;;;;;;12.82;3.90;;;;;;;8.96;100.00;100667.47;6276550;22;20069;-73
2023/03/22 06:47:02;;;;;;;9.43;3.65;;;;;;;9.02;100.00;100680.81;6277144;22;20016;-73
2023/03/22 06:49:27;;;;;;;10.80;3.90;;;;;;;9.11;100.00;100676.88;6250321;22;20010;-73
2023/03/22 06:51:53;;;;;;;11.15;4.18;;;;;;;9.11;100.00;100675.13;6276755;22;20003;-74
2023/03/22 06:54:18;;;;;;;11.95;4.72;;;;;;;9.26;100.00;100681.13;6276990;22;20045;-75
2023/03/22 06:56:43;;;;;;;12.40;3.90;;;;;;;9.41;100.00;100680.19;6277085;22;20035;-75
2023/03/22 06:59:09;;;;;;;12.02;4.15;;;;;;;9.58;100.00;100681.75;6277013;22;20004;-76
2023/03/22 07:01:34;;;;;;;8.60;3.83;;;;;;;9.78;100.00;100673.59;6276830;22;20330;-74
2023/03/22 07:04:00;;;;;;;10.98;4.03;;;;;;;9.96;100.00;100669.06;6276547;22;20035;-76
2023/03/22 07:06:25;;;;;;;9.75;4.15;;;;;;;10.13;98.55;100682.63;6277026;22;19999;-75
2023/03/22 07:08:50;;;;;;;8.85;4.68;;;;;;;10.09;97.54;100668.28;6276838;22;20004;-75
2023/03/22 07:11:16;;;;;;;11.80;4.60;;;;;;;10.13;97.58;100672.31;6277097;22;20503;-76
2023/03/22 07:13:41;;;;;;;12.40;4.80;;;;;;;9.91;97.67;100654.78;6275909;22;20018;-74
2023/03/22 07:16:07;;;;;;;11.50;4.70;;;;;;;9.93;98.66;100678.72;6276658;22;20007;-71
2023/03/22 07:18:32;;;;;;;10.13;4.40;;;;;;;9.91;99.08;100670.25;6276954;22;20337;-72
2023/03/22 07:20:58;;;;;;;9.65;4.68;;;;;;;9.82;98.33;100660.50;6276604;22;20418;-73
2023/03/22 07:23:23;;;;;;;11.75;4.38;;;;;;;9.82;98.72;100673.41;6276936;22;20000;-74
2023/03/22 07:25:49;;;;;;;9.70;4.57;;;;;;;9.86;98.00;100682.63;6276439;22;20477;-74
2023/03/22 07:28:15;;;;;;;11.13;4.07;;;;;;;9.86;98.11;100673.13;6276845;22;20014;-77
2023/03/22 07:30:41;;;;;;;14.25;4.68;;;;;;;9.69;97.29;100645.81;6276480;22;20007;-71
2023/03/22 07:33:10;;;;;;;9.07;4.00;;;;;;;9.87;97.01;100666.22;6275570;22;20008;-75
2023/03/22 07:35:36;;;;;;;11.23;4.10;;;;;;;9.88;96.43;100654.97;6276743;22;20003;-77
2023/03/22 07:38:02;;;;;;;9.43;4.40;;;;;;;10.03;96.35;100679.84;6276645;22;20023;-76
2023/03/22 07:40:28;;;;;;;11.05;4.47;;;;;;;9.89;95.54;100651.47;6276785;22;20027;-76
2023/03/22 07:42:54;;;;;;;11.10;5.15;;;;;;;10.16;95.92;100680.69;6276977;22;20038;-76
2023/03/22 07:45:20;;;;;;;12.02;4.57;;;;;;;10.20;94.98;100683.91;6276259;22;20014;-75
2023/03/22 07:47:46;;;;;;;11.60;4.60;;;;;;;10.18;94.45;100685.75;6276658;22;20012;-74
2023/03/22 07:50:12;;;;;;;9.77;4.55;;;;;;;10.26;94.93;100688.72;6276494;22;20034;-76
2023/03/22 07:52:41;;;;;;;11.75;4.65;;;;;;;10.36;94.73;100689.78;6276819;22;20003;-79
2023/03/22 07:55:10;;;;;;;12.27;5.10;;;;;;;10.40;94.06;100685.25;6276528;22;20053;-76
2023/03/22 07:57:36;;;;;;;13.85;5.70;;;;;;;10.28;92.38;100677.38;6276375;22;20333;-76
2023/03/22 08:00:03;;;;;;;11.75;4.97;;;;;;;10.40;93.07;100698.97;6276055;22;20004;-75
2023/03/22 08:02:29;;;;;;;10.85;4.95;;;;;;;10.42;92.73;100696.28;6276966;22;20006;-76
2023/03/22 08:04:54;;;;;;;10.23;4.25;;;;;;;10.46;92.11;100701.16;6276918;22;20004;-75
2023/03/22 08:07:20;;;;;;;11.90;5.05;;;;;;;10.51;90.66;100701.69;6276357;22;20008;-74
2023/03/22 08:09:45;;;;;;;10.75;4.55;;;;;;;10.55;90.82;100704.91;6276813;22;20004;-75
2023/03/22 08:12:11;;;;;;;11.80;4.32;;;;;;;10.63;90.54;100694.94;6276856;22;20004;-78
2023/03/22 08:14:36;;;;;;;12.15;4.40;;;;;;;10.73;90.80;100695.16;6276348;22;20471;-78
2023/03/22 08:17:02;;;;;;;11.98;4.57;;;;;;;10.73;89.13;100700.31;6276781;22;20012;-76
2023/03/22 08:19:28;;;;;;;12.27;4.13;;;;;;;10.75;88.66;100698.44;6276905;22;20330;-74
2023/03/22 08:21:53;;;;;;;10.75;3.75;;;;;;;10.80;87.26;100698.97;6276692;22;20006;-76
2023/03/22 08:24:19;;;;;;;11.43;4.00;;;;;;;10.90;87.37;100698.25;6276593;22;20003;-77
2023/03/22 08:26:44;;;;;;;10.95;3.50;;;;;;;11.11;86.78;100693.44;6276649;22;20034;-76
2023/03/22 08:29:10;;;;;;;10.93;3.50;;;;;;;11.18;85.92;100675.72;6275116;22;20000;-74
2023/03/22 08:31:35;;;;;;;10.93;3.85;;;;;;;11.30;85.79;100669.72;6275999;22;20353;-74
2023/03/22 08:34:01;;;;;;;10.60;3.50;;;;;;;11.61;84.81;100688.31;6277000;22;20079;-75
2023/03/22 08:36:27;;;;;;;9.20;3.17;;;;;;;11.74;83.44;100689.09;6276235;22;20026;-77
2023/03/22 08:38:53;;;;;;;10.77;3.47;;;;;;;11.78;83.04;100669.84;6276586;22;20317;-77
2023/03/22 08:41:18;;;;;;;12.07;3.40;;;;;;;11.90;81.87;100678.56;6276032;22;20004;-74
2023/03/22 08:43:44;;;;;;;8.02;2.70;;;;;;;11.82;81.64;100655.81;6249316;22;20034;-77
2023/03/22 08:46:09;;;;;;;11.60;2.55;;;;;;;11.81;80.53;100664.50;6276173;22;20000;-73
2023/03/22 08:48:37;;;;;;;10.98;3.42;;;;;;;11.80;81.72;100651.66;6276163;22;20014;-74
2023/03/22 08:51:05;;;;;;;11.52;3.20;;;;;;;11.94;81.05;100669.63;6248917;22;20015;-73
2023/03/22 08:53:30;;;;;;;9.15;2.40;;;;;;;11.84;80.40;100666.03;6278264;22;19999;-72
2023/03/22 08:55:56;;;;;;;10.60;2.85;;;;;;;11.88;80.41;100670.03;6277582;22;20066;-77
2023/03/22 08:58:22;;;;;;;11.90;3.45;;;;;;;11.81;79.69;100658.50;6277806;22;20492;-74
2023/03/22 09:00:47;;;;;;;10.88;2.75;;;;;;;12.00;79.95;100676.97;6278211;22;20000;-73
2023/03/22 09:03:13;;;;;;;9.30;2.30;;;;;;;12.10;80.19;100670.19;6278186;22;20011;-74
2023/03/22 09:05:38;;;;;;;8.70;2.50;;;;;;;12.11;78.87;100652.91;6278454;22;20000;-76
2023/03/22 09:08:05;;;;;;;8.52;2.63;;;;;;;12.28;78.53;100670.59;6278249;22;20065;-76
2023/03/22 09:10:31;;;;;;;8.05;2.22;;;;;;;12.29;79.05;100665.34;6278214;22;20019;-75
2023/03/22 09:12:56;;;;;;;9.23;3.10;;;;;;;12.28;78.13;100668.84;6278245;22;20004;-72
2023/03/22 09:15:21;;;;;;;8.20;2.15;;;;;;;12.30;77.67;100661.81;6278468;22;20444;-73
2023/03/22 09:17:47;;;;;;;9.48;2.50;;;;;;;12.29;78.49;100665.34;6278081;22;20031;-75
2023/03/22 09:20:12;;;;;;;6.80;2.58;;;;;;;12.36;78.01;100655.34;6277876;22;20003;-74
2023/03/22 09:22:38;;;;;;;10.73;2.80;;;;;;;12.34;77.51;100652.03;6278145;22;20024;-75
2023/03/22 09:25:03;;;;;;;10.00;2.15;;;;;;;12.44;76.84;100662.56;6251326;22;20031;-75
2023/03/22 09:27:29;;;;;;;7.75;2.60;;;;;;;12.56;76.94;100662.47;6277640;22;20003;-73
2023/03/22 09:29:55;;;;;;;10.25;2.80;;;;;;;12.35;75.24;100630.38;6278198;22;20004;-74
2023/03/22 09:32:20;;;;;;;7.65;2.13;;;;;;;12.42;76.55;100661.84;6277681;22;20000;-74
2023/03/22 09:34:46;;;;;;;10.27;2.78;;;;;;;12.31;76.86;100663.47;6277936;22;19999;-75
2023/03/22 09:37:11;;;;;;;9.52;2.70;;;;;;;12.20;77.43;100644.47;6277037;22;20069;-78
2023/03/22 09:39:38;;;;;;;10.13;3.25;;;;;;;12.10;77.02;100651.25;6277613;22;20003;-77
2023/03/22 09:42:37;;;;;;;7.70;2.50;;;;;;;12.03;77.01;100640.50;6277121;22;20004;-78
2023/03/22 09:45:05;;;;;;;8.45;2.33;;;;;;;12.09;76.79;100650.38;6277298;22;20016;-75
2023/03/22 09:47:38;;;;;;;9.43;2.60;;;;;;;11.99;76.73;100650.22;6277253;22;20010;-76
2023/03/22 09:50:25;;;;;;;7.10;2.33;;;;;;;11.98;77.81;100652.94;6277359;22;20009;-75
2023/03/22 09:52:52;;;;;;;8.48;2.50;;;;;;;11.98;78.09;100645.16;6277709;22;19999;-75
2023/03/22 09:55:26;;;;;;;8.30;2.35;;;;;;;11.96;77.42;100659.97;6277561;22;20377;-74
2023/03/22 09:58:06;;;;;;;11.25;2.17;;;;;;;11.90;77.54;100647.50;6277830;22;20136;-76
2023/03/22 10:00:41;;;;;;;7.93;2.30;;;;;;;11.86;77.49;100646.88;6277633;22;20004;-75
2023/03/22 10:03:20;;;;;;;9.48;2.53;;;;;;;11.81;77.73;100646.38;6276454;22;20418;-72
2023/03/22 10:05:52;;;;;;;12.10;2.35;;;;;;;11.83;77.72;100651.44;6277273;22;20006;-75
2023/03/22 10:08:39;;;;;;;9.10;2.80;;;;;;;11.83;78.35;100654.88;6277341;22;20007;-73
2023/03/22 10:11:17;;;;;;;9.70;2.67;;;;;;;11.70;78.51;100641.94;6277494;22;20425;-76
2023/03/22 10:13:56;;;;;;;7.18;2.10;;;;;;;11.72;78.37;100652.19;6277228;22;20004;-75
2023/03/22 10:16:31;;;;;;;10.20;2.25;;;;;;;11.60;79.32;100648.69;6277653;22;20004;-75
2023/03/22 10:19:04;;;;;;;10.48;2.50;;;;;;;11.56;79.82;100647.25;6277048;22;20459;-77
2023/03/22 10:21:31;;;;;;;7.35;2.35;;;;;;;11.55;80.77;100650.75;6277075;22;20444;-75
2023/03/22 10:24:02;;;;;;;8.00;2.50;;;;;;;11.55;81.81;100671.47;6277648;22;20011;-78
2023/03/22 10:26:31;;;;;;;;;;;;;;;11.56;83.03;100675.69;6277731;22;20003;-77
2023/03/22 10:29:04;;;;;;;10.32;3.17;;;;;;;11.34;84.86;100662.59;6277326;22;19914;-79
2023/03/22 10:31:33;;;;;;;8.43;2.30;;;;;;;11.42;87.69;100681.00;6277677;22;20006;-79
2023/03/22 10:34:04;;;;;;;7.35;2.58;;;;;;;11.30;90.29;100663.72;6277175;22;20475;-78
2023/03/22 10:36:34;;;;;;;7.93;2.55;;;;;;;11.12;91.55;100656.31;6277010;22;20429;-75
2023/03/22 10:39:34;;;;;;;12.38;2.97;;;;;;;11.07;94.12;100663.53;6275252;22;20011;-74
2023/03/22 10:42:03;;;;;;;10.27;2.40;;;;;;;10.83;96.72;100652.28;6272530;22;20082;-78
2023/03/22 10:44:33;;;;;;;11.00;2.83;;;;;;;10.85;97.69;100676.25;6277125;22;20011;-78
2023/03/22 10:47:06;;;;;;;9.82;3.13;;;;;;;10.76;99.85;100654.44;6277054;22;20053;-77
2023/03/22 10:49:35;;;;;;;11.15;3.30;;;;;;;10.92;99.20;100669.75;6277119;22;20015;-77
2023/03/22 10:52:08;;;;;;;9.10;2.60;;;;;;;10.90;100.00;100661.25;6277302;22;20012;-73
2023/03/22 10:54:35;;;;;;;7.95;3.10;;;;;;;10.91;100.00;100652.56;6277464;22;20045;-78
2023/03/22 10:57:00;;;;;;;8.73;2.63;;;;;;;11.18;100.00;100678.31;6277518;22;20000;-79
2023/03/22 10:59:48;;;;;;;9.00;2.60;;;;;;;11.21;99.95;100675.53;6277392;22;20432;-78
2023/03/22 11:02:30;;;;;;;8.15;2.88;;;;;;;10.96;100.00;100654.88;6277325;22;20070;-77
2023/03/22 11:04:59;;;;;;;8.10;2.75;;;;;;;10.96;100.00;100672.94;6275593;22;20358;-77
2023/03/22 11:07:36;;;;;;;10.25;3.05;;;;;;;11.04;100.00;100675.84;6277120;22;20362;-74
2023/03/22 11:10:07;;;;;;;9.00;2.75;;;;;;;11.09;100.00;100666.84;6276932;22;20198;-76
2023/03/22 11:12:42;;;;;;;10.32;3.35;;;;;;;11.06;100.00;100659.31;6276994;22;20027;-76
2023/03/22 11:15:19;;;;;;;8.52;2.72;;;;;;;11.28;100.00;100671.59;6276928;22;20012;-79
2023/03/22 11:17:45;;;;;;;11.95;3.70;;;;;;;11.40;100.00;100670.75;6276992;22;20088;-79
2023/03/22 11:20:18;;;;;;;13.25;3.50;;;;;;;11.51;100.00;100669.19;6277150;22;20023;-78
2023/03/22 11:22:45;;;;;;;10.23;3.00;;;;;;;11.60;100.00;100666.81;6277266;22;19999;-75
2023/03/22 11:25:25;;;;;;;7.95;3.05;;;;;;;11.67;100.00;100659.41;6276803;22;20478;-78
2023/03/22 11:27:52;;;;;;;10.40;3.47;;;;;;;11.67;99.37;100655.06;6276641;22;20014;-77